Flight Track Log - Related Links

Times and Time Zones

All times are in EDT time to prevent confusion due to time zone crossing. See the FDX1254 flight status page for this flight to view local times or setup timezone preferences in your user account.

Time Position Orientation Groundspeed Altitude Reporting Facility
EDT Latitude Longitude Course Direction KTS MPH feet Rate Location/Type
Thu 08:50:48 PM 41.7580 -71.5990 315° West 271 312 7,400  Level FlightAware ADS-B
Thu 08:51:18 PM 41.7830 -71.6410 309° West 269 310 9,300 2,486 Climbing FlightAware ADS-B
Thu 08:51:58 PM 41.8080 -71.7070 297° West 321 369 10,300 1,271 Climbing FlightAware ADS-B
Thu 08:52:43 PM 41.8420 -71.7950 297° West 380 437 11,100 1,800 Climbing FlightAware ADS-B
Thu 08:53:18 PM 41.8710 -71.8670 298° West 388 447 12,700 2,589 Climbing FlightAware ADS-B
Thu 08:54:18 PM 41.9230 -71.9990 298° West 401 461 15,200 2,520 Climbing FlightAware ADS-B
Thu 08:54:58 PM 41.9570 -72.0850 298° West 404 465 16,900 2,400 Climbing FlightAware ADS-B
Thu 08:55:33 PM 41.9900 -72.1670 298° West 415 478 18,200 2,133 Climbing FlightAware ADS-B
Thu 08:56:28 PM 42.0350 -72.2860 297° West 423 487 20,100 1,909 Climbing FlightAware ADS-B
Thu 08:57:23 PM 42.0910 -72.4280 298° West 445 512 21,700 1,895 Climbing FlightAware ADS-B
Thu 08:58:03 PM 42.1270 -72.5200 298° West 448 516 23,100 2,100 Climbing FlightAware ADS-B
Thu 08:58:43 PM 42.1670 -72.6350 295° West 445 512 24,500 1,768 Climbing FlightAware ADS-B
Thu 08:59:38 PM 42.1740 -72.7850 274° West 455 524 25,900 1,516 Climbing FlightAware ADS-B
Thu 09:00:18 PM 42.1700 -72.9020 267° West 464 534 26,900 1,553 Climbing FlightAware ADS-B
Thu 09:01:03 PM 42.1650 -73.0270 267° West 468 539 28,100 1,835 Climbing FlightAware ADS-B
Thu 09:01:43 PM 42.1610 -73.1460 267° West 461 531 29,500 1,765 Climbing FlightAware ADS-B
Thu 09:02:28 PM 42.1570 -73.2780 268° West 465 535 30,600 1,694 Climbing FlightAware ADS-B
Thu 09:03:08 PM 42.1520 -73.3910 267° West 461 531 31,900 1,957 Climbing FlightAware ADS-B
Thu 09:03:14 PM 42.1514 -73.4136 268° West 462 532 32,100 1,950 Climbing FlightAware ADS-B
Thu 09:03:48 PM 42.1476 -73.5104 267° West 458 527 33,200 1,606 Climbing FlightAware ADS-B
Thu 09:04:25 PM 42.1434 -73.6163 267° West 465 535 34,000 1,433 Climbing FlightAware ADS-B
Thu 09:04:55 PM 42.1399 -73.7058 267° West 464 534 34,800 1,672 Climbing FlightAware ADS-B
Thu 09:05:26 PM 42.1363 -73.7947 267° West 462 532 35,700 1,500 Climbing FlightAware ADS-B
Thu 09:05:59 PM 42.1323 -73.8895 267° West 464 534 36,400 1,313 Climbing FlightAware ADS-B
Thu 09:06:30 PM 42.1285 -73.9757 267° West 464 534 37,100 1,406 Climbing FlightAware ADS-B
Thu 09:07:03 PM 42.1243 -74.0735 267° West 460 529 37,900 1,219 Climbing FlightAware ADS-B
Thu 09:07:34 PM 42.1205 -74.1613 267° West 457 526 38,400 1,217 Climbing FlightAware ADS-B
Thu 09:08:12 PM 42.1159 -74.2660 267° West 454 522 39,300 1,286 Climbing FlightAware ADS-B
Thu 09:08:44 PM 42.1116 -74.3582 266° West 450 518 39,900 667 Climbing FlightAware ADS-B
Thu 09:09:15 PM 42.1075 -74.4451 266° West 452 520 40,000 94 Climbing FlightAware ADS-B
Thu 09:09:48 PM 42.1031 -74.5346 266° West 452 520 40,000  Level FlightAware ADS-B
Thu 09:10:18 PM 42.0990 -74.6213 266° West 451 519 40,000  Level FlightAware ADS-B
Thu 09:10:50 PM 42.0947 -74.7083 266° West 453 521 40,000  Level FlightAware ADS-B
Thu 09:11:20 PM 42.0904 -74.7926 266° West 454 522 40,000  Level FlightAware ADS-B
Thu 09:11:51 PM 42.0859 -74.8828 266° West 455 524 40,000  Level FlightAware ADS-B
Thu 09:12:22 PM 42.0814 -74.9701 266° West 455 524 40,000  Level FlightAware ADS-B
Thu 09:12:54 PM 42.0768 -75.0605 266° West 454 522 40,000  Level FlightAware ADS-B
Thu 09:13:24 PM 42.0723 -75.1445 266° West 453 521 40,000  Level FlightAware ADS-B
Thu 09:13:56 PM 42.0675 -75.2344 266° West 452 520 40,000  Level FlightAware ADS-B
Thu 09:14:08 PM 42.0653 -75.2678 265° West 453 521 40,000  Level FlightAware ADS-B
Thu 09:14:27 PM 42.0567 -75.3172 257° West 453 521 40,000  Level FlightAware ADS-B
Thu 09:14:43 PM 42.0439 -75.3619 249° West 456 525 40,000  Level FlightAware ADS-B
Thu 09:15:13 PM 42.0145 -75.4373 242° Southwest 458 527 40,000  Level FlightAware ADS-B
Thu 09:15:40 PM 41.9865 -75.5045 241° Southwest 459 528 40,000  Level FlightAware ADS-B
Thu 09:16:12 PM 41.9617 -75.5887 248° West 457 526 40,000  Level FlightAware ADS-B
Thu 09:16:31 PM 41.9551 -75.6415 260° West 454 522 40,000  Level FlightAware ADS-B
Thu 09:17:11 PM 41.9485 -75.7539 266° West 454 522 40,000  Level FlightAware ADS-B
Thu 09:17:42 PM 41.9437 -75.8409 266° West 455 524 40,000  Level FlightAware ADS-B
Thu 09:18:13 PM 41.9391 -75.9255 266° West 455 524 40,000  Level FlightAware ADS-B
Thu 09:18:43 PM 41.9343 -76.0128 266° West 456 525 40,000  Level FlightAware ADS-B
Thu 09:19:14 PM 41.9294 -76.1000 266° West 455 524 40,000  Level FlightAware ADS-B
Thu 09:19:46 PM 41.9243 -76.1901 266° West 454 522 40,000  Level FlightAware ADS-B
Thu 09:20:16 PM 41.9194 -76.2743 266° West 453 521 40,000  Level FlightAware ADS-B
Thu 09:20:49 PM 41.9140 -76.3637 265° West 451 519 40,000  Level FlightAware ADS-B
Thu 09:21:22 PM 41.9084 -76.4581 265° West 448 516 40,000  Level FlightAware ADS-B
Thu 09:21:53 PM 41.9040 -76.5270 265° West 448 516 40,000  Level FlightAware ADS-B
Thu 09:21:55 PM 41.9030 -76.5493 267° West 448 516 40,000  Level FlightAware ADS-B
Thu 09:22:25 PM 41.8979 -76.6323 265° West 447 514 40,000  Level FlightAware ADS-B
Thu 09:22:56 PM 41.8926 -76.7153 265° West 448 516 40,000  Level FlightAware ADS-B
Thu 09:23:27 PM 41.8871 -76.8033 265° West 445 512 40,000  Level FlightAware ADS-B
Thu 09:23:57 PM 41.8819 -76.8856 265° West 441 507 40,000  Level FlightAware ADS-B
Thu 09:24:27 PM 41.8766 -76.9670 265° West 441 507 40,000  Level FlightAware ADS-B
Thu 09:25:00 PM 41.8709 -77.0564 265° West 440 506 40,000  Level FlightAware ADS-B
Thu 09:25:37 PM 41.8644 -77.1557 265° West 435 501 40,000  Level FlightAware ADS-B
Thu 09:26:43 PM 41.8540 -77.3130 265° West 431 496 40,000  Level FlightAware ADS-B
Thu 09:26:52 PM 41.8510 -77.3558 265° West 434 499 40,000  Level FlightAware ADS-B
Thu 09:27:28 PM 41.8460 -77.4350 265° West 429 494 40,000  Level FlightAware ADS-B
Thu 09:28:08 PM 41.8380 -77.5410 264° West 427 491 40,000  Level FlightAware ADS-B
Thu 09:28:53 PM 41.8300 -77.6540 265° West 425 489 40,000  Level FlightAware ADS-B
Thu 09:29:33 PM 41.8230 -77.7560 265° West 425 489 40,000  Level FlightAware ADS-B
Thu 09:30:13 PM 41.8150 -77.8690 265° West 424 488 40,000  Level FlightAware ADS-B
Thu 09:30:58 PM 41.8060 -77.9840 264° West 425 489 40,000  Level FlightAware ADS-B
Thu 09:31:38 PM 41.7990 -78.0860 265° West 426 490 40,000  Level FlightAware ADS-B
Thu 09:32:23 PM 41.7890 -78.2090 264° West 426 490 40,000  Level FlightAware ADS-B
Thu 09:33:03 PM 41.7800 -78.3140 263° West 426 490 40,000  Level FlightAware ADS-B
Thu 09:33:43 PM 41.7710 -78.4140 263° West 426 490 40,000  Level FlightAware ADS-B
Thu 09:34:28 PM 41.7610 -78.5340 264° West 425 489 40,000  Level FlightAware ADS-B
Thu 09:35:08 PM 41.7520 -78.6410 264° West 424 488 40,000  Level FlightAware ADS-B
Thu 09:35:53 PM 41.7410 -78.7560 263° West 425 489 40,000  Level FlightAware ADS-B
Thu 09:36:28 PM 41.7340 -78.8370 263° West 424 488 40,000  Level FlightAware ADS-B
Thu 09:37:13 PM 41.7210 -78.9770 263° West 424 488 40,000  Level FlightAware ADS-B
Thu 09:37:58 PM 41.7110 -79.0920 263° West 424 488 40,000  Level FlightAware ADS-B
Thu 09:38:38 PM 41.7020 -79.1910 263° West 424 488 40,000  Level FlightAware ADS-B
Thu 09:39:18 PM 41.6910 -79.3020 262° West 423 487 40,000  Level FlightAware ADS-B
Thu 09:40:03 PM 41.6800 -79.4160 263° West 421 484 40,000  Level FlightAware ADS-B
Thu 09:40:48 PM 41.6690 -79.5320 263° West 421 484 40,000  Level FlightAware ADS-B
Thu 09:41:28 PM 41.6590 -79.6380 263° West 423 487 40,000  Level FlightAware ADS-B
Thu 09:42:08 PM 41.6490 -79.7420 263° West 425 489 40,000  Level FlightAware ADS-B
Thu 09:42:53 PM 41.6380 -79.8560 263° West 423 487 40,000  Level FlightAware ADS-B
Thu 09:43:28 PM 41.6290 -79.9470 262° West 423 487 40,000  Level FlightAware ADS-B
Thu 09:44:13 PM 41.6170 -80.0660 262° West 422 486 40,000  Level FlightAware ADS-B
Thu 09:44:58 PM 41.6050 -80.1820 262° West 418 481 40,000  Level FlightAware ADS-B
Thu 09:45:38 PM 41.5940 -80.2840 262° West 416 479 40,000  Level FlightAware ADS-B
Thu 09:46:23 PM 41.5830 -80.3980 263° West 411 473 40,000  Level FlightAware ADS-B
Thu 09:47:03 PM 41.5720 -80.5000 262° West 406 467 40,000  Level FlightAware ADS-B
Thu 09:47:43 PM 41.5610 -80.5990 262° West 403 464 40,000  Level FlightAware ADS-B
Thu 09:48:28 PM 41.5500 -80.7070 262° West 400 460 40,000  Level FlightAware ADS-B
Thu 09:49:08 PM 41.5400 -80.8020 262° West 397 457 40,000  Level FlightAware ADS-B
Thu 09:49:53 PM 41.5270 -80.9150 261° West 394 453 40,000  Level FlightAware ADS-B
Thu 09:50:33 PM 41.5170 -81.0110 262° West 392 451 40,000  Level FlightAware ADS-B
Thu 09:51:13 PM 41.5070 -81.1040 262° West 389 448 40,000  Level FlightAware ADS-B
Thu 09:51:58 PM 41.4950 -81.2080 261° West 389 448 40,000  Level FlightAware ADS-B
Thu 09:52:38 PM 41.4840 -81.3060 262° West 389 448 40,000  Level FlightAware ADS-B
Thu 09:53:23 PM 41.4720 -81.4100 261° West 389 448 40,000  Level FlightAware ADS-B
Thu 09:54:03 PM 41.4620 -81.5050 262° West 389 448 40,000  Level FlightAware ADS-B
Thu 09:54:43 PM 41.4510 -81.5990 261° West 388 447 40,000  Level FlightAware ADS-B
Thu 09:55:28 PM 41.4380 -81.7080 261° West 387 445 40,000  Level FlightAware ADS-B
Thu 09:56:08 PM 41.4280 -81.7990 262° West 380 437 40,000  Level FlightAware ADS-B
Thu 09:56:53 PM 41.4160 -81.9030 261° West 377 434 40,000  Level FlightAware ADS-B
Thu 09:57:33 PM 41.4050 -81.9940 261° West 374 430 40,000  Level FlightAware ADS-B
Thu 09:58:13 PM 41.3940 -82.0850 261° West 373 429 40,000  Level FlightAware ADS-B
Thu 09:58:53 PM 41.3830 -82.1730 261° West 372 428 40,000  Level FlightAware ADS-B
Thu 09:59:38 PM 41.3710 -82.2790 261° West 371 427 40,000  Level FlightAware ADS-B
Thu 10:00:23 PM 41.3580 -82.3800 260° West 370 426 40,000  Level FlightAware ADS-B
Thu 10:00:58 PM 41.3480 -82.4590 260° West 368 423 40,000 -635 Level FlightAware ADS-B
Thu 10:01:48 PM 41.3360 -82.5610 261° West 370 426 39,100 -1,267 Descending FlightAware ADS-B
Thu 10:02:28 PM 41.3240 -82.6600 261° West 382 440 38,100 -1,425 Descending FlightAware ADS-B
Thu 10:03:08 PM 41.3120 -82.7580 261° West 386 444 37,200 -1,350 Descending FlightAware ADS-B
Thu 10:03:48 PM 41.3000 -82.8470 260° West 389 448 36,300 -1,341 Descending FlightAware ADS-B
Thu 10:04:33 PM 41.2870 -82.9470 260° West 396 456 35,300 -1,400 Descending FlightAware ADS-B
Thu 10:05:18 PM 41.2720 -83.0630 260° West 397 457 34,200 -1,040 Descending FlightAware ADS-B
Thu 10:05:48 PM 41.2630 -83.1390 261° West 388 447 34,000 -353 Descending FlightAware ADS-B
Thu 10:06:43 PM 41.2470 -83.2650 260° West 395 455 33,700 -947 Descending FlightAware ADS-B
Thu 10:07:23 PM 41.2340 -83.3620 260° West 406 467 32,500 -1,800 Descending FlightAware ADS-B
Thu 10:08:03 PM 41.2210 -83.4620 260° West 413 475 31,300 -1,765 Descending FlightAware ADS-B
Thu 10:08:48 PM 41.2050 -83.5770 260° West 419 482 30,000 -1,976 Descending FlightAware ADS-B
Thu 10:09:28 PM 41.1910 -83.6810 260° West 436 502 28,500 -2,850 Descending FlightAware ADS-B
Thu 10:10:08 PM 41.1590 -83.7800 247° West 429 494 26,200 -3,176 Descending FlightAware ADS-B
Thu 10:10:53 PM 41.1110 -83.8720 235° Southwest 417 480 24,000 -2,753 Descending FlightAware ADS-B
Thu 10:11:33 PM 41.0690 -83.9560 236° Southwest 404 465 22,300 -2,612 Descending FlightAware ADS-B
Thu 10:12:18 PM 41.0480 -84.0670 256° West 396 456 20,300 -2,612 Descending FlightAware ADS-B
Thu 10:12:58 PM 41.0420 -84.1610 265° West 382 440 18,600 -2,894 Descending FlightAware ADS-B
Thu 10:13:43 PM 41.0360 -84.2590 265° West 366 421 16,200 -3,318 Descending FlightAware ADS-B
Thu 10:14:23 PM 41.0310 -84.3490 266° West 357 411 13,900 -2,700 Descending FlightAware ADS-B
Thu 10:15:03 PM 41.0260 -84.4340 266° West 354 407 12,600 -1,765 Descending FlightAware ADS-B
Thu 10:15:48 PM 41.0200 -84.5310 265° West 337 388 11,400 -988 Descending FlightAware ADS-B
Thu 10:16:28 PM 41.0150 -84.6140 265° West 319 367 11,200 -75 Descending FlightAware ADS-B
Thu 10:17:08 PM 41.0110 -84.6850 266° West 270 311 11,300 71 Climbing FlightAware ADS-B
Thu 10:17:53 PM 41.0070 -84.7510 265° West 254 292 11,300  Level FlightAware ADS-B
Thu 10:18:33 PM 41.0030 -84.8150 265° West 253 291 11,300 -60 Level FlightAware ADS-B
Thu 10:19:33 PM 40.9970 -84.9000 265° West 253 291 11,200 -60 Descending FlightAware ADS-B
Thu 10:20:13 PM 40.9940 -84.9530 266° West 253 291 11,200  Level FlightAware ADS-B
Thu 10:20:53 PM 40.9900 -85.0050 264° West 253 291 11,200 -4,743 Level FlightAware ADS-B
Thu 10:21:58 PM 41.0628 -85.0825 264° West 247 284 2,900 -4,333 Descending Chicago Center
Thu 10:22:59 PM 41.0325 -85.1231 225° Southwest 194 223 2,100 -634 Descending Chicago Center
Thu 10:24:01 PM 41.0036 -85.1594 224° Southwest 165 190 1,600 -484 Descending Chicago Center
Thu 10:26:00 PM 40.9667 -85.1833 246° West  Level FlightAware Approximate

Login

Don't have an account? Register now (free) for customized features, flight alerts, and more!